sensor_id;sensor_type;location;lat;lon;timestamp;pressure;altitude;pressure_sealevel;temperature
15360;BMP280;7779;49.596;11.070;2023-03-03T00:01:29;98506.94;;;3.97
15360;BMP280;7779;49.596;11.070;2023-03-03T00:03:57;98504.81;;;3.92
15360;BMP280;7779;49.596;11.070;2023-03-03T00:06:23;98516.06;;;3.88
15360;BMP280;7779;49.596;11.070;2023-03-03T00:08:49;98509.75;;;3.82
15360;BMP280;7779;49.596;11.070;2023-03-03T00:11:15;98510.25;;;3.78
15360;BMP280;7779;49.596;11.070;2023-03-03T00:13:53;98512.94;;;3.71
15360;BMP280;7779;49.596;11.070;2023-03-03T00:16:36;98507.38;;;3.64
15360;BMP280;7779;49.596;11.070;2023-03-03T00:19:02;98514.16;;;3.56
15360;BMP280;7779;49.596;11.070;2023-03-03T00:21:41;98521.19;;;3.52
15360;BMP280;7779;49.596;11.070;2023-03-03T00:24:21;98513.81;;;3.44
15360;BMP280;7779;49.596;11.070;2023-03-03T00:26:56;98514.31;;;3.40
15360;BMP280;7779;49.596;11.070;2023-03-03T00:29:39;98518.75;;;3.34
15360;BMP280;7779;49.596;11.070;2023-03-03T00:34:41;98517.97;;;3.25
15360;BMP280;7779;49.596;11.070;2023-03-03T00:37:26;98517.44;;;3.19
15360;BMP280;7779;49.596;11.070;2023-03-03T00:40:22;98535.25;;;3.15
15360;BMP280;7779;49.596;11.070;2023-03-03T00:42:58;98524.56;;;3.06
15360;BMP280;7779;49.596;11.070;2023-03-03T00:45:43;98526.16;;;3.06
15360;BMP280;7779;49.596;11.070;2023-03-03T00:50:58;98531.06;;;2.96
15360;BMP280;7779;49.596;11.070;2023-03-03T00:53:29;98539.81;;;2.92
15360;BMP280;7779;49.596;11.070;2023-03-03T00:55:55;98535.47;;;2.90
15360;BMP280;7779;49.596;11.070;2023-03-03T00:58:23;98536.06;;;2.87
15360;BMP280;7779;49.596;11.070;2023-03-03T01:00:52;98542.47;;;2.85
15360;BMP280;7779;49.596;11.070;2023-03-03T01:03:24;98543.69;;;2.80
15360;BMP280;7779;49.596;11.070;2023-03-03T01:05:52;98550.09;;;2.78
15360;BMP280;7779;49.596;11.070;2023-03-03T01:08:18;98545.75;;;2.76
15360;BMP280;7779;49.596;11.070;2023-03-03T01:10:50;98551.31;;;2.73
15360;BMP280;7779;49.596;11.070;2023-03-03T01:13:18;98549.56;;;2.72
15360;BMP280;7779;49.596;11.070;2023-03-03T01:15:45;98551.03;;;2.71
15360;BMP280;7779;49.596;11.070;2023-03-03T01:18:13;98552.38;;;2.67
15360;BMP280;7779;49.596;11.070;2023-03-03T01:20:39;98545.56;;;2.65
15360;BMP280;7779;49.596;11.070;2023-03-03T01:23:05;98545.56;;;2.65
15360;BMP280;7779;49.596;11.070;2023-03-03T01:25:31;98540.34;;;2.62
15360;BMP280;7779;49.596;11.070;2023-03-03T01:27:58;98540.19;;;2.60
15360;BMP280;7779;49.596;11.070;2023-03-03T01:30:25;98537.59;;;2.59
15360;BMP280;7779;49.596;11.070;2023-03-03T01:32:51;98528.16;;;2.55
15360;BMP280;7779;49.596;11.070;2023-03-03T01:35:17;98533.09;;;2.55
15360;BMP280;7779;49.596;11.070;2023-03-03T01:37:43;98533.56;;;2.51
15360;BMP280;7779;49.596;11.070;2023-03-03T01:40:26;98532.56;;;2.49
15360;BMP280;7779;49.596;11.070;2023-03-03T01:42:52;98526.47;;;2.45
15360;BMP280;7779;49.596;11.070;2023-03-03T01:45:27;98522.16;;;2.43
15360;BMP280;7779;49.596;11.070;2023-03-03T01:48:09;98528.53;;;2.41
15360;BMP280;7779;49.596;11.070;2023-03-03T01:51:00;98523.34;;;2.38
15360;BMP280;7779;49.596;11.070;2023-03-03T01:53:48;98523.06;;;2.35
15360;BMP280;7779;49.596;11.070;2023-03-03T01:56:15;98510.00;;;2.28
15360;BMP280;7779;49.596;11.070;2023-03-03T01:58:56;98527.72;;;2.32
15360;BMP280;7779;49.596;11.070;2023-03-03T02:01:26;98524.25;;;2.30
15360;BMP280;7779;49.596;11.070;2023-03-03T02:03:53;98520.75;;;2.28
15360;BMP280;7779;49.596;11.070;2023-03-03T02:06:26;98517.28;;;2.26
15360;BMP280;7779;49.596;11.070;2023-03-03T02:09:14;98508.88;;;2.24
15360;BMP280;7779;49.596;11.070;2023-03-03T02:11:45;98512.09;;;2.23
15360;BMP280;7779;49.596;11.070;2023-03-03T02:14:12;98511.06;;;2.21
15360;BMP280;7779;49.596;11.070;2023-03-03T02:16:42;98515.00;;;2.19
15360;BMP280;7779;49.596;11.070;2023-03-03T02:19:32;98523.16;;;2.18
15360;BMP280;7779;49.596;11.070;2023-03-03T02:22:00;98517.94;;;2.15
15360;BMP280;7779;49.596;11.070;2023-03-03T02:24:50;98516.22;;;2.14
15360;BMP280;7779;49.596;11.070;2023-03-03T02:27:18;98515.94;;;2.11
15360;BMP280;7779;49.596;11.070;2023-03-03T02:29:45;98515.63;;;2.08
15360;BMP280;7779;49.596;11.070;2023-03-03T02:32:11;98522.34;;;2.09
15360;BMP280;7779;49.596;11.070;2023-03-03T02:34:50;98520.59;;;2.08
15360;BMP280;7779;49.596;11.070;2023-03-03T02:37:18;98516.84;;;2.03
15360;BMP280;7779;49.596;11.070;2023-03-03T02:39:46;98515.97;;;2.03
15360;BMP280;7779;49.596;11.070;2023-03-03T02:42:16;98523.22;;;2.01
15360;BMP280;7779;49.596;11.070;2023-03-03T02:44:49;98523.84;;;1.99
15360;BMP280;7779;49.596;11.070;2023-03-03T02:47:15;98526.91;;;1.96
15360;BMP280;7779;49.596;11.070;2023-03-03T02:49:41;98524.91;;;1.93
15360;BMP280;7779;49.596;11.070;2023-03-03T02:52:10;98523.28;;;1.93
15360;BMP280;7779;49.596;11.070;2023-03-03T02:54:38;98525.47;;;1.90
15360;BMP280;7779;49.596;11.070;2023-03-03T02:57:05;98519.22;;;1.85
15360;BMP280;7779;49.596;11.070;2023-03-03T02:59:30;98523.31;;;1.85
15360;BMP280;7779;49.596;11.070;2023-03-03T03:02:01;98529.00;;;1.84
15360;BMP280;7779;49.596;11.070;2023-03-03T03:04:27;98515.63;;;1.82
15360;BMP280;7779;49.596;11.070;2023-03-03T03:06:55;98522.16;;;1.81
15360;BMP280;7779;49.596;11.070;2023-03-03T03:09:23;98522.00;;;1.80
15360;BMP280;7779;49.596;11.070;2023-03-03T03:11:51;98520.28;;;1.79
15360;BMP280;7779;49.596;11.070;2023-03-03T03:14:20;98518.41;;;1.76
15360;BMP280;7779;49.596;11.070;2023-03-03T03:16:45;98520.00;;;1.76
15360;BMP280;7779;49.596;11.070;2023-03-03T03:19:11;98522.47;;;1.76
15360;BMP280;7779;49.596;11.070;2023-03-03T03:21:38;98523.94;;;1.74
15360;BMP280;7779;49.596;11.070;2023-03-03T03:24:06;98524.78;;;1.74
15360;BMP280;7779;49.596;11.070;2023-03-03T03:26:32;98526.41;;;1.74
15360;BMP280;7779;49.596;11.070;2023-03-03T03:28:58;98528.03;;;1.73
15360;BMP280;7779;49.596;11.070;2023-03-03T03:31:24;98537.03;;;1.73
15360;BMP280;7779;49.596;11.070;2023-03-03T03:33:50;98535.28;;;1.72
15360;BMP280;7779;49.596;11.070;2023-03-03T03:36:18;98532.81;;;1.72
15360;BMP280;7779;49.596;11.070;2023-03-03T03:38:44;98531.06;;;1.71
15360;BMP280;7779;49.596;11.070;2023-03-03T03:41:11;98530.94;;;1.69
15360;BMP280;7779;49.596;11.070;2023-03-03T03:43:39;98543.16;;;1.68
15360;BMP280;7779;49.596;11.070;2023-03-03T03:46:05;98546.31;;;1.67
15360;BMP280;7779;49.596;11.070;2023-03-03T03:48:31;98548.09;;;1.68
15360;BMP280;7779;49.596;11.070;2023-03-03T03:50:58;98543.59;;;1.64
15360;BMP280;7779;49.596;11.070;2023-03-03T03:53:26;98534.44;;;1.63
15360;BMP280;7779;49.596;11.070;2023-03-03T03:55:52;98536.03;;;1.62
15360;BMP280;7779;49.596;11.070;2023-03-03T03:58:18;98530.97;;;1.61
15360;BMP280;7779;49.596;11.070;2023-03-03T04:00:51;98534.91;;;1.59
15360;BMP280;7779;49.596;11.070;2023-03-03T04:03:17;98527.34;;;1.57
15360;BMP280;7779;49.596;11.070;2023-03-03T04:05:46;98539.53;;;1.56
15360;BMP280;7779;49.596;11.070;2023-03-03T04:08:12;98535.34;;;1.55
15360;BMP280;7779;49.596;11.070;2023-03-03T04:10:39;98541.00;;;1.54
15360;BMP280;7779;49.596;11.070;2023-03-03T04:13:05;98540.84;;;1.53
15360;BMP280;7779;49.596;11.070;2023-03-03T04:15:32;98536.50;;;1.50
15360;BMP280;7779;49.596;11.070;2023-03-03T04:17:59;98534.75;;;1.49
15360;BMP280;7779;49.596;11.070;2023-03-03T04:20:26;98537.09;;;1.48
15360;BMP280;7779;49.596;11.070;2023-03-03T04:22:53;98545.22;;;1.47
15360;BMP280;7779;49.596;11.070;2023-03-03T04:25:23;98544.06;;;1.43
15360;BMP280;7779;49.596;11.070;2023-03-03T04:27:51;98553.09;;;1.43
15360;BMP280;7779;49.596;11.070;2023-03-03T04:30:19;98547.84;;;1.40
15360;BMP280;7779;49.596;11.070;2023-03-03T04:32:48;98551.94;;;1.39
15360;BMP280;7779;49.596;11.070;2023-03-03T04:35:16;98564.13;;;1.38
15360;BMP280;7779;49.596;11.070;2023-03-03T04:37:43;98563.97;;;1.36
15360;BMP280;7779;49.596;11.070;2023-03-03T04:40:10;98559.78;;;1.35
15360;BMP280;7779;49.596;11.070;2023-03-03T04:42:37;98554.56;;;1.32
15360;BMP280;7779;49.596;11.070;2023-03-03T04:45:05;98558.47;;;1.30
15360;BMP280;7779;49.596;11.070;2023-03-03T04:47:32;98565.88;;;1.30
15360;BMP280;7779;49.596;11.070;2023-03-03T04:49:58;98551.66;;;1.28
15360;BMP280;7779;49.596;11.070;2023-03-03T04:52:28;98559.63;;;1.25
15360;BMP280;7779;49.596;11.070;2023-03-03T04:54:54;98551.22;;;1.23
15360;BMP280;7779;49.596;11.070;2023-03-03T04:57:20;98554.13;;;1.19
15360;BMP280;7779;49.596;11.070;2023-03-03T04:59:45;98561.25;;;1.16
15360;BMP280;7779;49.596;11.070;2023-03-03T05:02:11;98562.84;;;1.16
15360;BMP280;7779;49.596;11.070;2023-03-03T05:04:37;98561.84;;;1.14
15360;BMP280;7779;49.596;11.070;2023-03-03T05:07:03;98574.03;;;1.13
15360;BMP280;7779;49.596;11.070;2023-03-03T05:09:29;98565.59;;;1.11
15360;BMP280;7779;49.596;11.070;2023-03-03T05:11:55;98572.00;;;1.09
15360;BMP280;7779;49.596;11.070;2023-03-03T05:14:20;98575.19;;;1.08
15360;BMP280;7779;49.596;11.070;2023-03-03T05:16:46;98573.31;;;1.05
15360;BMP280;7779;49.596;11.070;2023-03-03T05:19:12;98572.28;;;1.03
15360;BMP280;7779;49.596;11.070;2023-03-03T05:21:38;98570.53;;;1.02
15360;BMP280;7779;49.596;11.070;2023-03-03T05:24:12;98566.34;;;1.01
15360;BMP280;7779;49.596;11.070;2023-03-03T05:26:39;98573.44;;;0.98
15360;BMP280;7779;49.596;11.070;2023-03-03T05:29:06;98582.44;;;0.98
15360;BMP280;7779;49.596;11.070;2023-03-03T05:31:32;98578.97;;;0.96
15360;BMP280;7779;49.596;11.070;2023-03-03T05:33:58;98577.22;;;0.95
15360;BMP280;7779;49.596;11.070;2023-03-03T05:36:24;98577.97;;;0.94
15360;BMP280;7779;49.596;11.070;2023-03-03T05:38:50;98576.94;;;0.92
15360;BMP280;7779;49.596;11.070;2023-03-03T05:41:15;98581.72;;;0.90
15360;BMP280;7779;49.596;11.070;2023-03-03T05:43:41;98580.72;;;0.88
15360;BMP280;7779;49.596;11.070;2023-03-03T05:46:07;98583.03;;;0.87
15360;BMP280;7779;49.596;11.070;2023-03-03T05:48:33;98591.88;;;0.85
15360;BMP280;7779;49.596;11.070;2023-03-03T05:50:59;98602.44;;;0.84
15360;BMP280;7779;49.596;11.070;2023-03-03T05:53:27;98600.72;;;0.83
15360;BMP280;7779;49.596;11.070;2023-03-03T05:55:53;98598.09;;;0.81
15360;BMP280;7779;49.596;11.070;2023-03-03T05:58:18;98603.75;;;0.80
15360;BMP280;7779;49.596;11.070;2023-03-03T06:00:44;98591.41;;;0.80
15360;BMP280;7779;49.596;11.070;2023-03-03T06:03:10;98595.50;;;0.80
15360;BMP280;7779;49.596;11.070;2023-03-03T06:05:35;98603.03;;;0.81
15360;BMP280;7779;49.596;11.070;2023-03-03T06:08:01;98608.84;;;0.82
15360;BMP280;7779;49.596;11.070;2023-03-03T06:10:27;98612.31;;;0.84
15360;BMP280;7779;49.596;11.070;2023-03-03T06:12:56;98608.25;;;0.84
15360;BMP280;7779;49.596;11.070;2023-03-03T06:15:23;98614.94;;;0.85
15360;BMP280;7779;49.596;11.070;2023-03-03T06:17:49;98620.16;;;0.88
15360;BMP280;7779;49.596;11.070;2023-03-03T06:20:15;98615.34;;;0.90
15360;BMP280;7779;49.596;11.070;2023-03-03T06:22:41;98617.81;;;0.90
15360;BMP280;7779;49.596;11.070;2023-03-03T06:25:07;98623.38;;;0.96
15360;BMP280;7779;49.596;11.070;2023-03-03T06:27:33;98622.19;;;1.01
15360;BMP280;7779;49.596;11.070;2023-03-03T06:29:58;98629.19;;;1.05
15360;BMP280;7779;49.596;11.070;2023-03-03T06:32:24;98629.44;;;1.08
15360;BMP280;7779;49.596;11.070;2023-03-03T06:34:50;98628.00;;;1.10
15360;BMP280;7779;49.596;11.070;2023-03-03T06:37:16;98627.44;;;1.12
15360;BMP280;7779;49.596;11.070;2023-03-03T06:39:42;98625.13;;;1.14
15360;BMP280;7779;49.596;11.070;2023-03-03T06:42:07;98640.34;;;1.18
15360;BMP280;7779;49.596;11.070;2023-03-03T06:44:34;98640.19;;;1.16
15360;BMP280;7779;49.596;11.070;2023-03-03T06:47:00;98644.69;;;1.20
15360;BMP280;7779;49.596;11.070;2023-03-03T06:49:27;98651.38;;;1.21
15360;BMP280;7779;49.596;11.070;2023-03-03T06:51:52;98650.69;;;1.22
15360;BMP280;7779;49.596;11.070;2023-03-03T06:54:24;98656.03;;;1.27
15360;BMP280;7779;49.596;11.070;2023-03-03T06:56:58;98666.19;;;1.30
15360;BMP280;7779;49.596;11.070;2023-03-03T06:59:26;98664.16;;;1.34
15360;BMP280;7779;49.596;11.070;2023-03-03T07:01:52;98664.59;;;1.39
15360;BMP280;7779;49.596;11.070;2023-03-03T07:04:26;98658.63;;;1.45
15360;BMP280;7779;49.596;11.070;2023-03-03T07:06:55;98658.78;;;1.55
15360;BMP280;7779;49.596;11.070;2023-03-03T07:09:28;98658.19;;;1.66
15360;BMP280;7779;49.596;11.070;2023-03-03T07:12:08;98657.59;;;1.77
15360;BMP280;7779;49.596;11.070;2023-03-03T07:14:45;98669.59;;;1.91
15360;BMP280;7779;49.596;11.070;2023-03-03T07:17:18;98677.00;;;2.07
15360;BMP280;7779;49.596;11.070;2023-03-03T07:19:46;98665.03;;;2.20
15360;BMP280;7779;49.596;11.070;2023-03-03T07:22:17;98654.38;;;2.38
15360;BMP280;7779;49.596;11.070;2023-03-03T07:24:53;98659.50;;;2.58
15360;BMP280;7779;49.596;11.070;2023-03-03T07:27:28;98672.06;;;2.77
15360;BMP280;7779;49.596;11.070;2023-03-03T07:32:45;98678.81;;;3.15
15360;BMP280;7779;49.596;11.070;2023-03-03T07:35:35;98680.41;;;3.33
15360;BMP280;7779;49.596;11.070;2023-03-03T07:38:16;98678.84;;;3.51
15360;BMP280;7779;49.596;11.070;2023-03-03T07:40:50;98675.47;;;3.69
15360;BMP280;7779;49.596;11.070;2023-03-03T07:43:37;98685.22;;;3.86
15360;BMP280;7779;49.596;11.070;2023-03-03T07:46:40;98689.75;;;4.00
15360;BMP280;7779;49.596;11.070;2023-03-03T07:49:36;98692.81;;;4.16
15360;BMP280;7779;49.596;11.070;2023-03-03T07:52:42;98681.31;;;4.26
15360;BMP280;7779;49.596;11.070;2023-03-03T07:55:34;98683.13;;;4.47
15360;BMP280;7779;49.596;11.070;2023-03-03T08:03:23;98702.69;;;4.92
15360;BMP280;7779;49.596;11.070;2023-03-03T08:05:50;98696.72;;;5.00
15360;BMP280;7779;49.596;11.070;2023-03-03T08:08:29;98704.69;;;5.15
15360;BMP280;7779;49.596;11.070;2023-03-03T08:11:00;98694.88;;;5.27
15360;BMP280;7779;49.596;11.070;2023-03-03T08:13:40;98695.09;;;5.40
15360;BMP280;7779;49.596;11.070;2023-03-03T08:18:39;98689.63;;;5.63
15360;BMP280;7779;49.596;11.070;2023-03-03T08:21:14;98693.25;;;5.77
15360;BMP280;7779;49.596;11.070;2023-03-03T08:23:40;98693.31;;;5.88
15360;BMP280;7779;49.596;11.070;2023-03-03T08:26:07;98693.19;;;5.96
15360;BMP280;7779;49.596;11.070;2023-03-03T08:28:32;98698.13;;;6.06
15360;BMP280;7779;49.596;11.070;2023-03-03T08:30:58;98684.78;;;6.16
15360;BMP280;7779;49.596;11.070;2023-03-03T08:33:24;98684.75;;;6.25
15360;BMP280;7779;49.596;11.070;2023-03-03T08:35:50;98687.28;;;6.37
15360;BMP280;7779;49.596;11.070;2023-03-03T08:38:19;98686.53;;;6.48
15360;BMP280;7779;49.596;11.070;2023-03-03T08:40:45;98692.28;;;6.58
15360;BMP280;7779;49.596;11.070;2023-03-03T08:43:12;98684.66;;;6.66
15360;BMP280;7779;49.596;11.070;2023-03-03T08:45:44;98671.41;;;6.77
15360;BMP280;7779;49.596;11.070;2023-03-03T08:48:10;98672.31;;;6.89
15360;BMP280;7779;49.596;11.070;2023-03-03T08:50:37;98671.50;;;7.00
15360;BMP280;7779;49.596;11.070;2023-03-03T08:53:04;98679.84;;;7.12
15360;BMP280;7779;49.596;11.070;2023-03-03T08:55:31;98682.28;;;7.22
15360;BMP280;7779;49.596;11.070;2023-03-03T08:57:57;98679.56;;;7.30
15360;BMP280;7779;49.596;11.070;2023-03-03T09:00:23;98677.75;;;7.39
15360;BMP280;7779;49.596;11.070;2023-03-03T09:02:50;98674.34;;;7.48
15360;BMP280;7779;49.596;11.070;2023-03-03T09:05:17;98683.44;;;7.59
15360;BMP280;7779;49.596;11.070;2023-03-03T09:07:44;98681.59;;;7.68
15360;BMP280;7779;49.596;11.070;2023-03-03T09:10:15;98670.00;;;7.80
15360;BMP280;7779;49.596;11.070;2023-03-03T09:12:45;98663.41;;;7.92
15360;BMP280;7779;49.596;11.070;2023-03-03T09:15:34;98673.38;;;8.03
15360;BMP280;7779;49.596;11.070;2023-03-03T09:18:35;98669.28;;;8.15
15360;BMP280;7779;49.596;11.070;2023-03-03T09:21:25;98664.03;;;8.23
15360;BMP280;7779;49.596;11.070;2023-03-03T09:24:00;98668.03;;;8.33
15360;BMP280;7779;49.596;11.070;2023-03-03T09:26:49;98679.53;;;8.42
15360;BMP280;7779;49.596;11.070;2023-03-03T09:29:25;98681.78;;;8.51
15360;BMP280;7779;49.596;11.070;2023-03-03T09:31:59;98677.31;;;8.58
15360;BMP280;7779;49.596;11.070;2023-03-03T09:37:23;98669.53;;;8.78
15360;BMP280;7779;49.596;11.070;2023-03-03T09:39:54;98675.16;;;8.87
15360;BMP280;7779;49.596;11.070;2023-03-03T09:43:02;98676.66;;;8.96
15360;BMP280;7779;49.596;11.070;2023-03-03T09:45:59;98679.66;;;9.03
15360;BMP280;7779;49.596;11.070;2023-03-03T09:51:59;98688.91;;;9.17
15360;BMP280;7779;49.596;11.070;2023-03-03T09:54:56;98682.59;;;9.22
15360;BMP280;7779;49.596;11.070;2023-03-03T09:58:11;98687.34;;;9.31
15360;BMP280;7779;49.596;11.070;2023-03-03T10:01:15;98680.34;;;9.38
15360;BMP280;7779;49.596;11.070;2023-03-03T10:07:28;98676.13;;;9.50
15360;BMP280;7779;49.596;11.070;2023-03-03T10:10:13;98676.72;;;9.59
15360;BMP280;7779;49.596;11.070;2023-03-03T10:16:20;98667.91;;;9.76
15360;BMP280;7779;49.596;11.070;2023-03-03T10:19:01;98668.47;;;9.85
15360;BMP280;7779;49.596;11.070;2023-03-03T10:22:16;98676.44;;;9.91
15360;BMP280;7779;49.596;11.070;2023-03-03T10:25:11;98677.38;;;9.93
15360;BMP280;7779;49.596;11.070;2023-03-03T10:30:49;98681.91;;;9.99
15360;BMP280;7779;49.596;11.070;2023-03-03T10:33:48;98679.00;;;10.06
15360;BMP280;7779;49.596;11.070;2023-03-03T10:36:54;98687.97;;;10.15
15360;BMP280;7779;49.596;11.070;2023-03-03T10:43:11;98681.03;;;10.24
15360;BMP280;7779;49.596;11.070;2023-03-03T10:52:16;98682.34;;;10.45
15360;BMP280;7779;49.596;11.070;2023-03-03T11:07:10;98675.34;;;10.66
15360;BMP280;7779;49.596;11.070;2023-03-03T11:13:22;98669.75;;;10.83
15360;BMP280;7779;49.596;11.070;2023-03-03T11:19:12;98672.19;;;10.96
15360;BMP280;7779;49.596;11.070;2023-03-03T11:33:09;98648.38;;;11.31
15360;BMP280;7779;49.596;11.070;2023-03-03T11:36:08;98659.81;;;11.40
15360;BMP280;7779;49.596;11.070;2023-03-03T11:41:42;98647.25;;;11.53
15360;BMP280;7779;49.596;11.070;2023-03-03T11:44:26;98651.81;;;11.60
15360;BMP280;7779;49.596;11.070;2023-03-03T11:47:23;98649.81;;;11.69
15360;BMP280;7779;49.596;11.070;2023-03-03T11:52:54;98631.19;;;11.80
15360;BMP280;7779;49.596;11.070;2023-03-03T11:55:41;98629.91;;;11.86
15360;BMP280;7779;49.596;11.070;2023-03-03T11:58:24;98636.09;;;11.93
15360;BMP280;7779;49.596;11.070;2023-03-03T12:01:21;98632.38;;;12.01
15360;BMP280;7779;49.596;11.070;2023-03-03T12:04:02;98620.16;;;12.07
15360;BMP280;7779;49.596;11.070;2023-03-03T12:09:39;98611.72;;;12.20
15360;BMP280;7779;49.596;11.070;2023-03-03T12:12:15;98608.66;;;12.26
15360;BMP280;7779;49.596;11.070;2023-03-03T12:15:05;98601.53;;;12.33
15360;BMP280;7779;49.596;11.070;2023-03-03T12:17:55;98598.41;;;12.37
15360;BMP280;7779;49.596;11.070;2023-03-03T12:20:39;98595.19;;;12.40
15360;BMP280;7779;49.596;11.070;2023-03-03T12:26:53;98585.56;;;12.47
15360;BMP280;7779;49.596;11.070;2023-03-03T12:29:40;98590.88;;;12.53
15360;BMP280;7779;49.596;11.070;2023-03-03T12:35:19;98580.50;;;12.63
15360;BMP280;7779;49.596;11.070;2023-03-03T12:40:44;98580.38;;;12.76
15360;BMP280;7779;49.596;11.070;2023-03-03T12:46:06;98567.66;;;12.88
15360;BMP280;7779;49.596;11.070;2023-03-03T12:48:42;98573.56;;;12.89
15360;BMP280;7779;49.596;11.070;2023-03-03T12:51:34;98571.13;;;12.90
15360;BMP280;7779;49.596;11.070;2023-03-03T12:54:40;98575.50;;;12.94
15360;BMP280;7779;49.596;11.070;2023-03-03T12:57:15;98569.84;;;12.98
15360;BMP280;7779;49.596;11.070;2023-03-03T13:00:30;98566.69;;;13.02
15360;BMP280;7779;49.596;11.070;2023-03-03T13:03:34;98568.72;;;13.09
15360;BMP280;7779;49.596;11.070;2023-03-03T13:09:40;98563.13;;;13.15
15360;BMP280;7779;49.596;11.070;2023-03-03T13:15:56;98561.78;;;13.21
15360;BMP280;7779;49.596;11.070;2023-03-03T13:18:31;98562.66;;;13.22
15360;BMP280;7779;49.596;11.070;2023-03-03T13:21:26;98567.03;;;13.26
15360;BMP280;7779;49.596;11.070;2023-03-03T13:24:05;98563.75;;;13.27
15360;BMP280;7779;49.596;11.070;2023-03-03T13:27:00;98554.69;;;13.30
15360;BMP280;7779;49.596;11.070;2023-03-03T13:29:41;98553.03;;;13.30
15360;BMP280;7779;49.596;11.070;2023-03-03T13:35:44;98548.06;;;13.32
15360;BMP280;7779;49.596;11.070;2023-03-03T13:38:26;98551.53;;;13.34
15360;BMP280;7779;49.596;11.070;2023-03-03T13:41:21;98544.06;;;13.35
15360;BMP280;7779;49.596;11.070;2023-03-03T13:44:01;98544.13;;;13.37
15360;BMP280;7779;49.596;11.070;2023-03-03T13:51:54;98543.50;;;13.41
15360;BMP280;7779;49.596;11.070;2023-03-03T13:54:44;98544.34;;;13.41
15360;BMP280;7779;49.596;11.070;2023-03-03T14:01:11;98534.94;;;13.37
15360;BMP280;7779;49.596;11.070;2023-03-03T14:04:13;98539.03;;;13.35
15360;BMP280;7779;49.596;11.070;2023-03-03T14:06:54;98528.16;;;13.36
15360;BMP280;7779;49.596;11.070;2023-03-03T14:09:40;98523.19;;;13.38
15360;BMP280;7779;49.596;11.070;2023-03-03T14:12:38;98538.44;;;13.41
15360;BMP280;7779;49.596;11.070;2023-03-03T14:15:43;98530.97;;;13.42
15360;BMP280;7779;49.596;11.070;2023-03-03T14:21:14;98538.72;;;13.47
15360;BMP280;7779;49.596;11.070;2023-03-03T14:26:28;98527.81;;;13.46
15360;BMP280;7779;49.596;11.070;2023-03-03T14:29:17;98527.09;;;13.49
15360;BMP280;7779;49.596;11.070;2023-03-03T14:31:44;98511.06;;;13.47
15360;BMP280;7779;49.596;11.070;2023-03-03T14:36:40;98522.03;;;13.49
15360;BMP280;7779;49.596;11.070;2023-03-03T14:39:35;98516.16;;;13.48
15360;BMP280;7779;49.596;11.070;2023-03-03T14:42:34;98521.19;;;13.48
15360;BMP280;7779;49.596;11.070;2023-03-03T14:45:35;98523.63;;;13.47
15360;BMP280;7779;49.596;11.070;2023-03-03T14:48:18;98520.25;;;13.46
15360;BMP280;7779;49.596;11.070;2023-03-03T14:51:23;98517.59;;;13.43
15360;BMP280;7779;49.596;11.070;2023-03-03T14:53:50;98517.47;;;13.40
15360;BMP280;7779;49.596;11.070;2023-03-03T14:56:28;98512.34;;;13.39
15360;BMP280;7779;49.596;11.070;2023-03-03T14:59:18;98512.28;;;13.37
15360;BMP280;7779;49.596;11.070;2023-03-03T15:01:45;98513.06;;;13.36
15360;BMP280;7779;49.596;11.070;2023-03-03T15:06:49;98509.69;;;13.36
15360;BMP280;7779;49.596;11.070;2023-03-03T15:09:26;98508.75;;;13.34
15360;BMP280;7779;49.596;11.070;2023-03-03T15:11:59;98505.31;;;13.32
15360;BMP280;7779;49.596;11.070;2023-03-03T15:14:37;98506.88;;;13.30
15360;BMP280;7779;49.596;11.070;2023-03-03T15:33:58;98504.97;;;13.09
15360;BMP280;7779;49.596;11.070;2023-03-03T15:36:46;98510.75;;;13.06
15360;BMP280;7779;49.596;11.070;2023-03-03T15:39:48;98507.22;;;13.03
15360;BMP280;7779;49.596;11.070;2023-03-03T15:42:26;98517.03;;;12.98
15360;BMP280;7779;49.596;11.070;2023-03-03T15:45:32;98515.16;;;12.94
15360;BMP280;7779;49.596;11.070;2023-03-03T15:54:08;98503.53;;;12.81
15360;BMP280;7779;49.596;11.070;2023-03-03T15:56:49;98507.53;;;12.77
15360;BMP280;7779;49.596;11.070;2023-03-03T16:02:15;98520.59;;;12.70
15360;BMP280;7779;49.596;11.070;2023-03-03T16:05:00;98519.41;;;12.64
15360;BMP280;7779;49.596;11.070;2023-03-03T16:13:49;98531.84;;;12.45
15360;BMP280;7779;49.596;11.070;2023-03-03T16:16:40;98523.19;;;12.40
15360;BMP280;7779;49.596;11.070;2023-03-03T16:19:34;98527.91;;;12.34
15360;BMP280;7779;49.596;11.070;2023-03-03T16:22:30;98526.53;;;12.25
15360;BMP280;7779;49.596;11.070;2023-03-03T16:25:57;98541.31;;;12.19
15360;BMP280;7779;49.596;11.070;2023-03-03T16:28:51;98546.78;;;12.12
15360;BMP280;7779;49.596;11.070;2023-03-03T16:31:28;98545.63;;;12.06
15360;BMP280;7779;49.596;11.070;2023-03-03T16:40:10;98554.41;;;11.83
15360;BMP280;7779;49.596;11.070;2023-03-03T16:42:36;98562.31;;;11.75
15360;BMP280;7779;49.596;11.070;2023-03-03T16:45:23;98559.47;;;11.69
15360;BMP280;7779;49.596;11.070;2023-03-03T16:50:43;98570.97;;;11.51
15360;BMP280;7779;49.596;11.070;2023-03-03T16:56:37;98586.53;;;11.31
15360;BMP280;7779;49.596;11.070;2023-03-03T16:59:28;98585.06;;;11.21
15360;BMP280;7779;49.596;11.070;2023-03-03T17:13:52;98618.69;;;10.68
15360;BMP280;7779;49.596;11.070;2023-03-03T17:16:50;98617.97;;;10.56
15360;BMP280;7779;49.596;11.070;2023-03-03T17:23:00;98628.44;;;10.37
15360;BMP280;7779;49.596;11.070;2023-03-03T17:25:47;98621.22;;;10.28
15360;BMP280;7779;49.596;11.070;2023-03-03T17:34:15;98633.47;;;9.98
15360;BMP280;7779;49.596;11.070;2023-03-03T17:37:29;98642.88;;;9.89
15360;BMP280;7779;49.596;11.070;2023-03-03T17:40:33;98644.63;;;9.77
15360;BMP280;7779;49.596;11.070;2023-03-03T17:46:00;98651.53;;;9.56
15360;BMP280;7779;49.596;11.070;2023-03-03T17:48:44;98650.94;;;9.47
15360;BMP280;7779;49.596;11.070;2023-03-03T17:54:47;98674.34;;;9.23
15360;BMP280;7779;49.596;11.070;2023-03-03T18:06:26;98683.44;;;8.86
15360;BMP280;7779;49.596;11.070;2023-03-03T18:09:17;98670.31;;;8.77
15360;BMP280;7779;49.596;11.070;2023-03-03T18:12:14;98677.41;;;8.71
15360;BMP280;7779;49.596;11.070;2023-03-03T18:15:08;98679.34;;;8.63
15360;BMP280;7779;49.596;11.070;2023-03-03T18:21:09;98679.41;;;8.52
15360;BMP280;7779;49.596;11.070;2023-03-03T18:23:44;98687.22;;;8.45
15360;BMP280;7779;49.596;11.070;2023-03-03T18:26:40;98681.16;;;8.42
15360;BMP280;7779;49.596;11.070;2023-03-03T18:29:23;98683.13;;;8.34
15360;BMP280;7779;49.596;11.070;2023-03-03T18:32:04;98683.44;;;8.27
15360;BMP280;7779;49.596;11.070;2023-03-03T18:34:41;98683.81;;;8.20
15360;BMP280;7779;49.596;11.070;2023-03-03T18:42:37;98680.75;;;8.02